createdAt,value
2018-11-10T00:02:40.373Z,89.04
2018-11-10T00:05:46.209Z,88.64
2018-11-10T00:08:51.646Z,89.33
2018-11-10T00:11:58.565Z,89.05
2018-11-10T00:15:04.561Z,89.05
2018-11-10T00:18:10.105Z,88.95
2018-11-10T00:21:15.605Z,89.01
2018-11-10T00:24:21.168Z,89.13
2018-11-10T00:27:26.717Z,88.71
2018-11-10T00:30:32.310Z,88.51
2018-11-10T00:33:38.009Z,89.17
2018-11-10T00:36:44.022Z,88.80
2018-11-10T00:39:49.708Z,88.23
2018-11-10T00:42:55.490Z,88.83
2018-11-10T00:46:01.626Z,88.92
2018-11-10T00:49:07.354Z,89.10
2018-11-10T00:52:13.226Z,88.98
2018-11-10T00:55:18.743Z,89.14
2018-11-10T00:58:24.173Z,89.02
2018-11-10T01:01:30.581Z,88.97
2018-11-10T01:04:36.135Z,88.55
2018-11-10T01:07:42.012Z,88.58
2018-11-10T01:10:47.661Z,88.94
2018-11-10T01:13:53.222Z,88.52
2018-11-10T01:16:58.620Z,88.43
2018-11-10T01:20:04.138Z,88.44
2018-11-10T01:23:10.092Z,88.27
2018-11-10T01:26:15.558Z,88.66
2018-11-10T01:29:21.006Z,88.30
2018-11-10T01:32:26.403Z,88.99
2018-11-10T01:35:31.978Z,90.11
2018-11-10T01:38:37.424Z,89.33
2018-11-10T01:41:42.918Z,88.83
2018-11-10T01:44:48.357Z,89.20
2018-11-10T01:47:53.773Z,88.75
2018-11-10T01:50:59.210Z,88.77
2018-11-10T01:54:04.767Z,89.10
2018-11-10T01:57:10.161Z,89.63
2018-11-10T02:00:17.365Z,90.26
2018-11-10T02:03:22.818Z,89.75
2018-11-10T02:06:28.207Z,89.12
2018-11-10T02:09:33.618Z,88.94
2018-11-10T02:12:39.037Z,89.82
2018-11-10T02:15:44.475Z,90.07
2018-11-10T02:18:50.006Z,89.27
2018-11-10T02:21:55.481Z,89.15
2018-11-10T02:25:01.061Z,89.55
2018-11-10T02:28:06.694Z,89.74
2018-11-10T02:31:12.078Z,89.11
2018-11-10T02:34:17.570Z,89.31
2018-11-10T02:37:23.077Z,89.49
2018-11-10T02:40:28.597Z,89.40
2018-11-10T02:43:34.074Z,89.49
2018-11-10T02:46:39.485Z,90.08
2018-11-10T02:49:44.905Z,89.82
2018-11-10T02:52:50.364Z,89.43
2018-11-10T02:55:55.951Z,89.37
2018-11-10T02:59:01.398Z,89.45
2018-11-10T03:02:06.997Z,88.94
2018-11-10T03:05:12.587Z,88.73
2018-11-10T03:08:17.998Z,88.56
2018-11-10T03:11:23.515Z,88.75
2018-11-10T03:14:29.159Z,88.74
2018-11-10T03:17:34.645Z,89.10
2018-11-10T03:20:40.110Z,88.53
2018-11-10T03:23:45.582Z,87.84
2018-11-10T03:26:50.981Z,87.98
2018-11-10T03:29:56.459Z,88.06
2018-11-10T03:33:01.864Z,88.39
2018-11-10T03:36:07.476Z,88.39
2018-11-10T03:39:13.753Z,88.02
2018-11-10T03:42:19.227Z,87.12
2018-11-10T03:45:24.916Z,87.62
2018-11-10T03:48:30.373Z,87.47
2018-11-10T03:51:35.767Z,87.83
2018-11-10T03:54:41.202Z,87.88
2018-11-10T03:57:46.583Z,87.96
2018-11-10T04:00:52.123Z,87.24
2018-11-10T04:03:57.653Z,86.76
2018-11-10T04:07:03.094Z,87.80
2018-11-10T04:10:08.690Z,88.64
2018-11-10T04:13:14.093Z,87.95
2018-11-10T04:16:19.569Z,87.68
2018-11-10T04:19:25.034Z,87.36
2018-11-10T04:22:35.482Z,87.68
2018-11-10T04:25:41.639Z,87.90
2018-11-10T04:28:47.035Z,87.35
2018-11-10T04:31:52.409Z,87.17
2018-11-10T04:34:57.922Z,87.36
2018-11-10T04:38:03.425Z,86.91
2018-11-10T04:41:09.358Z,86.67
2018-11-10T04:44:14.835Z,86.31
2018-11-10T04:47:20.214Z,86.21
2018-11-10T04:50:25.610Z,86.78
2018-11-10T04:53:31.081Z,86.75
2018-11-10T04:56:36.505Z,86.32
2018-11-10T04:59:41.887Z,86.91
2018-11-10T05:02:47.261Z,87.09
2018-11-10T05:05:53.089Z,86.73
2018-11-10T05:08:59.038Z,87.11
2018-11-10T05:12:04.548Z,87.33
2018-11-10T05:15:11.564Z,86.98
2018-11-10T05:18:16.920Z,86.40
2018-11-10T05:21:22.469Z,86.46
2018-11-10T05:24:28.399Z,86.84
2018-11-10T05:27:33.984Z,87.08
2018-11-10T05:30:39.442Z,87.08
2018-11-10T05:33:45.391Z,86.87
2018-11-10T05:36:50.934Z,86.19
2018-11-10T05:39:56.537Z,86.19
2018-11-10T05:43:01.973Z,86.47
2018-11-10T05:46:07.737Z,86.62
2018-11-10T05:49:13.197Z,86.56
2018-11-10T05:52:18.569Z,87.08
2018-11-10T05:55:24.022Z,87.14
2018-11-10T05:58:29.390Z,86.04
2018-11-10T06:01:34.825Z,86.70
2018-11-10T06:04:40.241Z,86.35
2018-11-10T06:07:45.687Z,86.46
2018-11-10T06:10:51.049Z,85.93
2018-11-10T06:13:56.515Z,85.94
2018-11-10T06:17:01.906Z,86.98
2018-11-10T06:20:09.342Z,88.92
2018-11-10T06:23:14.753Z,89.64
2018-11-10T06:26:20.126Z,89.88
2018-11-10T06:29:25.698Z,89.68
2018-11-10T06:32:31.203Z,89.43
2018-11-10T06:35:36.799Z,90.61
2018-11-10T06:38:42.218Z,90.93
2018-11-10T06:41:47.582Z,91.50
2018-11-10T06:44:53.052Z,91.10
2018-11-10T06:47:58.456Z,91.37
2018-11-10T06:51:03.831Z,90.53
2018-11-10T06:54:09.335Z,90.91
2018-11-10T06:57:14.766Z,92.05
2018-11-10T07:00:20.178Z,92.71
2018-11-10T07:03:25.662Z,91.83
2018-11-10T07:06:31.210Z,91.46
2018-11-10T07:09:36.629Z,91.84
2018-11-10T07:12:42.186Z,91.54
2018-11-10T07:15:47.628Z,91.40
2018-11-10T07:18:53.019Z,90.87
2018-11-10T07:21:58.369Z,90.66
2018-11-10T07:25:04.265Z,90.35
2018-11-10T07:28:09.743Z,90.40
2018-11-10T07:31:15.665Z,90.05
2018-11-10T07:34:21.269Z,89.34
2018-11-10T07:37:26.677Z,90.12
2018-11-10T07:40:32.207Z,89.88
2018-11-10T07:43:37.669Z,90.21
2018-11-10T07:46:43.042Z,88.85
2018-11-10T07:49:48.454Z,88.85
2018-11-10T07:52:53.809Z,88.80
2018-11-10T07:55:59.382Z,88.78
2018-11-10T07:59:05.146Z,88.64
2018-11-10T08:02:10.559Z,88.60
2018-11-10T08:05:16.554Z,88.55
2018-11-10T08:08:22.205Z,88.78
2018-11-10T08:11:27.594Z,88.57
2018-11-10T08:14:33.008Z,87.42
2018-11-10T08:17:38.544Z,86.85
2018-11-10T08:20:43.934Z,86.95
2018-11-10T08:23:49.574Z,86.20
2018-11-10T08:26:57.087Z,85.52
2018-11-10T08:30:02.571Z,86.01
2018-11-10T08:33:08.813Z,85.12
2018-11-10T08:36:14.233Z,86.48
2018-11-10T08:39:19.709Z,85.38
2018-11-10T08:42:25.289Z,85.67
2018-11-10T08:45:30.777Z,85.43
2018-11-10T08:48:36.194Z,85.21
2018-11-10T08:51:41.635Z,84.55
2018-11-10T08:54:47.366Z,84.28
2018-11-10T08:57:52.774Z,84.20
2018-11-10T09:00:58.222Z,84.28
2018-11-10T09:04:03.663Z,84.09
2018-11-10T09:07:09.706Z,84.23
2018-11-10T09:10:15.478Z,83.67
2018-11-10T09:13:20.974Z,84.03
2018-11-10T09:16:28.334Z,83.42
2018-11-10T09:19:34.139Z,83.35
2018-11-10T09:22:39.546Z,83.75
2018-11-10T09:25:45.077Z,83.74
2018-11-10T09:28:50.664Z,83.75
2018-11-10T09:31:56.205Z,84.41
2018-11-10T09:35:02.223Z,83.85
2018-11-10T09:38:08.661Z,84.56
2018-11-10T09:41:16.562Z,85.03
2018-11-10T09:44:22.535Z,84.36
2018-11-10T09:47:28.122Z,83.98
2018-11-10T09:50:33.648Z,85.15
2018-11-10T09:53:39.348Z,84.53
2018-11-10T09:56:46.616Z,85.68
2018-11-10T09:59:55.003Z,86.00
2018-11-10T10:03:00.488Z,86.15
2018-11-10T10:06:06.266Z,85.32
2018-11-10T10:09:12.418Z,85.70
2018-11-10T10:12:18.012Z,85.21
2018-11-10T10:15:23.699Z,84.47
2018-11-10T10:18:29.361Z,84.43
2018-11-10T10:21:35.143Z,85.20
2018-11-10T10:24:41.034Z,84.86
2018-11-10T10:27:48.103Z,84.11
2018-11-10T10:30:53.809Z,83.42
2018-11-10T10:33:59.664Z,83.34
2018-11-10T10:37:05.595Z,82.87
2018-11-10T10:40:12.873Z,81.63
2018-11-10T10:43:18.894Z,82.38
2018-11-10T10:46:24.529Z,82.02
2018-11-10T10:49:29.999Z,81.62
2018-11-10T10:52:35.526Z,80.76
2018-11-10T10:55:41.087Z,79.53
2018-11-10T10:58:46.532Z,79.22
2018-11-10T11:02:57.817Z,78.67
2018-11-10T11:06:03.575Z,79.81
2018-11-10T11:09:09.935Z,77.78
2018-11-10T11:12:15.726Z,77.88
2018-11-10T11:15:22.080Z,77.07
2018-11-10T11:18:27.790Z,77.37
2018-11-10T11:21:33.225Z,76.92
2018-11-10T11:24:39.004Z,76.56
2018-11-10T11:27:44.604Z,76.34
2018-11-10T11:30:50.254Z,75.75
2018-11-10T11:33:55.891Z,77.41
2018-11-10T11:37:01.458Z,75.69
2018-11-10T11:40:09.551Z,75.56
2018-11-10T11:43:15.165Z,75.33
2018-11-10T11:46:20.670Z,74.84
2018-11-10T11:49:26.445Z,73.74
2018-11-10T11:52:44.314Z,72.92
2018-11-10T11:55:50.411Z,73.23
2018-11-10T11:58:58.300Z,73.13
2018-11-10T12:02:04.137Z,73.00
2018-11-10T12:05:11.961Z,72.17
2018-11-10T12:08:17.499Z,72.88
2018-11-10T12:11:23.787Z,73.34
2018-11-10T12:14:29.486Z,74.06
2018-11-10T12:17:35.227Z,74.78
2018-11-10T12:20:40.754Z,75.01
2018-11-10T12:23:46.549Z,74.56
2018-11-10T12:26:52.121Z,74.64
2018-11-10T12:29:57.777Z,75.77
2018-11-10T12:33:03.198Z,74.93
2018-11-10T12:36:08.857Z,75.55
2018-11-10T12:39:14.476Z,74.74
2018-11-10T12:42:20.014Z,75.77
2018-11-10T12:45:25.680Z,76.00
2018-11-10T12:48:31.151Z,76.85
2018-11-10T12:51:36.710Z,76.54
2018-11-10T12:54:42.408Z,78.68
2018-11-10T12:57:48.250Z,80.00
2018-11-10T13:00:54.129Z,80.53
2018-11-10T13:04:00.040Z,79.98
2018-11-10T13:07:05.757Z,79.57
2018-11-10T13:10:12.018Z,80.40
2018-11-10T13:13:17.627Z,79.96
2018-11-10T13:16:23.183Z,80.68
2018-11-10T13:19:28.794Z,80.17
2018-11-10T13:22:34.281Z,79.60
2018-11-10T13:25:39.726Z,79.90
2018-11-10T13:28:45.290Z,80.89
2018-11-10T13:31:50.810Z,80.21
2018-11-10T13:34:56.530Z,80.66
2018-11-10T13:38:02.185Z,80.20
2018-11-10T13:41:07.794Z,81.37
2018-11-10T13:44:13.406Z,80.98
2018-11-10T13:47:18.959Z,83.22
2018-11-10T13:50:24.381Z,82.52
2018-11-10T13:53:29.798Z,83.04
2018-11-10T13:56:35.208Z,83.03
2018-11-10T13:59:40.737Z,85.12
2018-11-10T14:02:46.150Z,83.86
2018-11-10T14:05:51.610Z,83.41
2018-11-10T14:08:57.605Z,84.17
2018-11-10T14:12:03.381Z,83.84
2018-11-10T14:15:09.446Z,83.14
2018-11-10T14:18:14.982Z,84.18
2018-11-10T14:21:20.378Z,84.42
2018-11-10T14:24:25.858Z,84.64
2018-11-10T14:27:31.359Z,84.12
2018-11-10T14:30:36.734Z,84.23
2018-11-10T14:33:42.211Z,84.82
2018-11-10T14:36:47.594Z,85.01
2018-11-10T14:39:52.978Z,85.88
2018-11-10T14:42:58.374Z,85.30
2018-11-10T14:46:03.891Z,85.37
2018-11-10T14:49:09.337Z,85.07
2018-11-10T14:52:14.735Z,85.60
2018-11-10T14:55:20.266Z,85.65
2018-11-10T14:58:25.726Z,85.42
2018-11-10T15:01:32.706Z,85.25
2018-11-10T15:04:38.270Z,85.77
2018-11-10T15:07:44.314Z,85.88
2018-11-10T15:10:49.725Z,85.69
2018-11-10T15:13:55.362Z,86.86
2018-11-10T15:17:00.758Z,86.97
2018-11-10T15:20:07.714Z,87.45
2018-11-10T15:23:13.161Z,87.59
2018-11-10T15:26:18.558Z,88.56
2018-11-10T15:29:23.954Z,88.42
2018-11-10T15:32:29.310Z,88.30
2018-11-10T15:35:34.801Z,89.48
2018-11-10T15:38:40.402Z,89.00
2018-11-10T15:41:45.773Z,89.62
2018-11-10T15:44:51.303Z,89.22
2018-11-10T15:47:56.870Z,89.82
2018-11-10T15:51:02.314Z,89.84
2018-11-10T15:54:07.934Z,89.46
2018-11-10T15:57:13.473Z,88.66
2018-11-10T16:00:20.042Z,89.36
2018-11-10T16:03:25.949Z,89.47
2018-11-10T16:06:31.909Z,89.67
2018-11-10T16:09:37.544Z,90.18
2018-11-10T16:12:43.178Z,89.79
2018-11-10T16:15:48.850Z,89.42
2018-11-10T16:18:54.349Z,89.63
2018-11-10T16:22:01.503Z,89.79
2018-11-10T16:25:08.979Z,88.97
2018-11-10T16:28:14.446Z,89.59
2018-11-10T16:31:19.948Z,89.44
2018-11-10T16:34:25.502Z,89.03
2018-11-10T16:37:32.992Z,89.49
2018-11-10T16:40:38.467Z,89.88
2018-11-10T16:43:46.555Z,90.73
2018-11-10T16:46:52.046Z,90.39
2018-11-10T16:49:57.741Z,90.22
2018-11-10T16:53:03.590Z,89.19
2018-11-10T16:56:09.502Z,89.93
2018-11-10T16:59:16.565Z,90.54
2018-11-10T17:02:22.140Z,90.17
2018-11-10T17:05:27.702Z,89.46
2018-11-10T17:08:33.184Z,89.36
2018-11-10T17:11:39.218Z,89.73
2018-11-10T17:14:46.114Z,89.92
2018-11-10T17:20:54.165Z,89.00
2018-11-10T17:24:00.371Z,88.82
2018-11-10T17:27:06.685Z,89.47
2018-11-10T17:30:19.111Z,89.45
2018-11-10T17:33:25.715Z,89.10
2018-11-10T17:36:31.361Z,88.78
2018-11-10T17:39:36.947Z,89.09
2018-11-10T17:42:42.834Z,89.65
2018-11-10T17:45:48.650Z,88.14
2018-11-10T17:48:54.358Z,88.79
2018-11-10T17:51:59.929Z,89.21
2018-11-10T17:55:07.155Z,88.71
2018-11-10T17:58:16.680Z,88.27
2018-11-10T18:01:24.472Z,88.65
2018-11-10T18:04:30.192Z,88.25
2018-11-10T18:07:35.742Z,88.55
2018-11-10T18:10:41.257Z,88.53
2018-11-10T18:13:46.782Z,88.59
2018-11-10T18:16:52.427Z,89.36
2018-11-10T18:19:59.279Z,89.26
2018-11-10T18:23:07.533Z,88.51
2018-11-10T18:26:15.594Z,88.11
2018-11-10T18:29:21.344Z,87.62
2018-11-10T18:32:26.965Z,88.46
2018-11-10T18:35:35.197Z,89.12
2018-11-10T18:38:42.584Z,88.64
2018-11-10T18:41:48.333Z,89.40
2018-11-10T18:45:07.463Z,88.79
2018-11-10T18:48:15.038Z,87.63
2018-11-10T18:51:21.452Z,88.39
2018-11-10T18:54:26.990Z,88.19
2018-11-10T18:57:32.538Z,87.91
2018-11-10T19:00:37.974Z,88.83
2018-11-10T19:03:43.507Z,88.00
2018-11-10T19:06:49.253Z,87.92
2018-11-10T19:09:54.718Z,88.42
2018-11-10T19:13:00.269Z,88.30
2018-11-10T19:16:06.173Z,87.72
2018-11-10T19:19:11.625Z,88.06
2018-11-10T19:22:17.099Z,87.65
2018-11-10T19:25:22.562Z,87.17
2018-11-10T19:28:28.071Z,86.77
2018-11-10T19:31:33.539Z,86.98
2018-11-10T19:34:40.214Z,87.68
2018-11-10T19:37:46.226Z,87.06
2018-11-10T19:40:51.656Z,87.06
2018-11-10T19:43:57.094Z,87.77
2018-11-10T19:47:02.495Z,87.25
2018-11-10T19:50:08.352Z,87.23
2018-11-10T19:53:14.194Z,86.91
2018-11-10T19:56:19.632Z,87.11
2018-11-10T19:59:25.092Z,87.56
2018-11-10T20:02:30.485Z,87.61
2018-11-10T20:05:35.971Z,86.74
2018-11-10T20:08:41.672Z,87.80
2018-11-10T20:11:58.899Z,87.71
2018-11-10T20:15:06.319Z,87.34
2018-11-10T20:18:15.044Z,88.05
2018-11-10T20:21:21.581Z,87.27
2018-11-10T20:24:27.090Z,87.76
2018-11-10T20:27:32.610Z,87.20
2018-11-10T20:30:38.053Z,87.71
2018-11-10T20:33:43.582Z,87.55
2018-11-10T20:36:49.249Z,88.21
2018-11-10T20:39:54.675Z,87.98
2018-11-10T20:43:00.595Z,88.17
2018-11-10T20:46:07.027Z,88.10
2018-11-10T20:49:12.545Z,88.09
2018-11-10T20:52:17.940Z,87.84
2018-11-10T20:55:23.428Z,87.61
2018-11-10T20:58:28.848Z,87.43
2018-11-10T21:01:34.259Z,87.19
2018-11-10T21:04:40.118Z,87.42
2018-11-10T21:07:45.804Z,87.22
2018-11-10T21:10:51.203Z,87.40
2018-11-10T21:13:56.662Z,86.69
2018-11-10T21:17:02.075Z,86.44
2018-11-10T21:20:09.271Z,86.65
2018-11-10T21:23:14.902Z,87.10
2018-11-10T21:26:20.304Z,86.73
2018-11-10T21:29:25.751Z,86.62
2018-11-10T21:32:31.341Z,86.16
2018-11-10T21:35:36.994Z,86.45
2018-11-10T21:38:42.500Z,86.70
2018-11-10T21:41:47.946Z,86.43
2018-11-10T21:44:53.422Z,86.09
2018-11-10T21:47:58.766Z,86.14
2018-11-10T21:51:04.159Z,86.23
2018-11-10T21:54:09.702Z,85.74
2018-11-10T21:57:15.131Z,85.28
2018-11-10T22:00:21.878Z,84.93
2018-11-10T22:03:27.378Z,85.27
2018-11-10T22:06:32.958Z,85.19
2018-11-10T22:09:38.394Z,85.06
2018-11-10T22:12:44.617Z,84.91
2018-11-10T22:15:50.313Z,84.78
2018-11-10T22:18:55.878Z,83.69
2018-11-10T22:22:01.348Z,84.39
2018-11-10T22:25:08.995Z,83.60
2018-11-10T22:28:14.358Z,84.23
2018-11-10T22:31:19.868Z,84.19
2018-11-10T22:34:25.362Z,84.31
2018-11-10T22:37:30.810Z,84.27
2018-11-10T22:40:36.249Z,84.18
2018-11-10T22:43:41.954Z,84.06
2018-11-10T22:46:47.363Z,84.36
2018-11-10T22:49:53.065Z,83.83
2018-11-10T22:52:58.494Z,84.06
2018-11-10T22:56:03.998Z,83.94
2018-11-10T22:59:09.522Z,83.77
2018-11-10T23:02:14.925Z,83.72
2018-11-10T23:05:20.930Z,84.43
2018-11-10T23:08:26.285Z,83.37
2018-11-10T23:11:31.694Z,83.86
2018-11-10T23:14:37.181Z,83.50
2018-11-10T23:17:42.914Z,83.15
2018-11-10T23:20:48.285Z,83.10
2018-11-10T23:23:53.750Z,83.45
2018-11-10T23:26:59.108Z,83.52
2018-11-10T23:30:04.590Z,82.93
2018-11-10T23:33:09.974Z,83.35
2018-11-10T23:36:15.429Z,83.29
2018-11-10T23:39:20.802Z,83.08
2018-11-10T23:42:26.186Z,82.50
2018-11-10T23:45:31.669Z,81.74
2018-11-10T23:48:37.054Z,82.51
2018-11-10T23:51:42.394Z,82.08
2018-11-10T23:54:47.799Z,82.50
2018-11-10T23:57:53.186Z,82.89
